sensor_id;sensor_type;location;lat;lon;timestamp;P1;durP1;ratioP1;P2;durP2;ratioP2
69463;SDS011;56665;41.106;16.688;2024-03-02T00:00:57;20.50;;;5.50;;
69463;SDS011;56665;41.106;16.688;2024-03-02T00:04:02;21.77;;;5.70;;
69463;SDS011;56665;41.106;16.688;2024-03-02T00:07:07;16.33;;;4.78;;
69463;SDS011;56665;41.106;16.688;2024-03-02T00:10:11;12.48;;;3.67;;
69463;SDS011;56665;41.106;16.688;2024-03-02T00:13:19;13.30;;;3.10;;
69463;SDS011;56665;41.106;16.688;2024-03-02T00:16:23;11.68;;;2.90;;
69463;SDS011;56665;41.106;16.688;2024-03-02T00:19:33;17.63;;;3.60;;
69463;SDS011;56665;41.106;16.688;2024-03-02T00:22:36;15.63;;;2.85;;
69463;SDS011;56665;41.106;16.688;2024-03-02T00:25:41;16.05;;;4.05;;
69463;SDS011;56665;41.106;16.688;2024-03-02T00:28:45;17.10;;;3.67;;
69463;SDS011;56665;41.106;16.688;2024-03-02T00:31:49;13.27;;;3.50;;
69463;SDS011;56665;41.106;16.688;2024-03-02T00:34:53;15.97;;;3.70;;
69463;SDS011;56665;41.106;16.688;2024-03-02T00:37:56;14.13;;;3.75;;
69463;SDS011;56665;41.106;16.688;2024-03-02T00:41:04;11.18;;;3.22;;
69463;SDS011;56665;41.106;16.688;2024-03-02T00:44:12;10.80;;;2.92;;
69463;SDS011;56665;41.106;16.688;2024-03-02T00:47:16;13.98;;;2.75;;
69463;SDS011;56665;41.106;16.688;2024-03-02T00:50:20;9.70;;;2.73;;
69463;SDS011;56665;41.106;16.688;2024-03-02T00:53:25;11.93;;;3.03;;
69463;SDS011;56665;41.106;16.688;2024-03-02T00:56:29;11.35;;;2.97;;
69463;SDS011;56665;41.106;16.688;2024-03-02T00:59:33;12.40;;;2.33;;
69463;SDS011;56665;41.106;16.688;2024-03-02T01:02:37;8.40;;;2.03;;
69463;SDS011;56665;41.106;16.688;2024-03-02T01:05:41;12.17;;;3.07;;
69463;SDS011;56665;41.106;16.688;2024-03-02T01:08:47;12.85;;;2.20;;
69463;SDS011;56665;41.106;16.688;2024-03-02T01:11:53;15.98;;;2.58;;
69463;SDS011;56665;41.106;16.688;2024-03-02T01:14:57;11.52;;;2.25;;
69463;SDS011;56665;41.106;16.688;2024-03-02T01:18:01;10.88;;;1.98;;
69463;SDS011;56665;41.106;16.688;2024-03-02T01:21:05;9.17;;;1.37;;
69463;SDS011;56665;41.106;16.688;2024-03-02T01:24:09;9.80;;;2.00;;
69463;SDS011;56665;41.106;16.688;2024-03-02T01:27:12;11.05;;;1.83;;
69463;SDS011;56665;41.106;16.688;2024-03-02T01:30:16;9.05;;;2.33;;
69463;SDS011;56665;41.106;16.688;2024-03-02T01:33:20;13.23;;;2.47;;
69463;SDS011;56665;41.106;16.688;2024-03-02T01:36:24;9.73;;;1.70;;
69463;SDS011;56665;41.106;16.688;2024-03-02T01:39:28;8.00;;;2.22;;
69463;SDS011;56665;41.106;16.688;2024-03-02T01:42:32;10.00;;;2.33;;
69463;SDS011;56665;41.106;16.688;2024-03-02T01:45:36;7.65;;;1.90;;
69463;SDS011;56665;41.106;16.688;2024-03-02T01:48:40;9.52;;;1.90;;
69463;SDS011;56665;41.106;16.688;2024-03-02T01:51:44;8.07;;;1.53;;
69463;SDS011;56665;41.106;16.688;2024-03-02T01:54:48;8.38;;;1.65;;
69463;SDS011;56665;41.106;16.688;2024-03-02T01:57:52;9.55;;;1.95;;
69463;SDS011;56665;41.106;16.688;2024-03-02T02:00:56;9.35;;;1.73;;
69463;SDS011;56665;41.106;16.688;2024-03-02T02:03:59;10.50;;;1.70;;
69463;SDS011;56665;41.106;16.688;2024-03-02T02:07:03;8.47;;;1.67;;
69463;SDS011;56665;41.106;16.688;2024-03-02T02:10:08;8.93;;;1.70;;
69463;SDS011;56665;41.106;16.688;2024-03-02T02:13:12;11.23;;;2.20;;
69463;SDS011;56665;41.106;16.688;2024-03-02T02:16:16;14.55;;;2.03;;
69463;SDS011;56665;41.106;16.688;2024-03-02T02:19:22;13.50;;;1.73;;
69463;SDS011;56665;41.106;16.688;2024-03-02T02:22:26;9.30;;;2.07;;
69463;SDS011;56665;41.106;16.688;2024-03-02T02:25:30;11.18;;;1.73;;
69463;SDS011;56665;41.106;16.688;2024-03-02T02:28:34;7.63;;;1.70;;
69463;SDS011;56665;41.106;16.688;2024-03-02T02:31:41;10.35;;;1.88;;
69463;SDS011;56665;41.106;16.688;2024-03-02T02:34:45;8.50;;;2.22;;
69463;SDS011;56665;41.106;16.688;2024-03-02T02:37:49;8.90;;;2.17;;
69463;SDS011;56665;41.106;16.688;2024-03-02T02:40:55;8.90;;;1.90;;
69463;SDS011;56665;41.106;16.688;2024-03-02T02:43:58;10.32;;;2.97;;
69463;SDS011;56665;41.106;16.688;2024-03-02T02:47:02;16.45;;;6.57;;
69463;SDS011;56665;41.106;16.688;2024-03-02T02:50:08;13.15;;;5.20;;
69463;SDS011;56665;41.106;16.688;2024-03-02T02:53:12;7.10;;;2.87;;
69463;SDS011;56665;41.106;16.688;2024-03-02T02:56:16;9.90;;;2.85;;
69463;SDS011;56665;41.106;16.688;2024-03-02T02:59:19;10.82;;;3.00;;
69463;SDS011;56665;41.106;16.688;2024-03-02T03:02:23;9.38;;;2.53;;
69463;SDS011;56665;41.106;16.688;2024-03-02T03:05:27;9.13;;;2.33;;
69463;SDS011;56665;41.106;16.688;2024-03-02T03:08:30;13.63;;;3.10;;
69463;SDS011;56665;41.106;16.688;2024-03-02T03:11:34;7.78;;;2.55;;
69463;SDS011;56665;41.106;16.688;2024-03-02T03:14:39;10.27;;;2.60;;
69463;SDS011;56665;41.106;16.688;2024-03-02T03:17:44;6.57;;;2.05;;
69463;SDS011;56665;41.106;16.688;2024-03-02T03:20:49;7.90;;;2.25;;
69463;SDS011;56665;41.106;16.688;2024-03-02T03:23:53;7.27;;;2.30;;
69463;SDS011;56665;41.106;16.688;2024-03-02T03:26:56;8.48;;;1.95;;
69463;SDS011;56665;41.106;16.688;2024-03-02T03:30:00;7.30;;;2.20;;
69463;SDS011;56665;41.106;16.688;2024-03-02T03:33:04;9.70;;;2.33;;
69463;SDS011;56665;41.106;16.688;2024-03-02T03:36:11;7.15;;;2.40;;
69463;SDS011;56665;41.106;16.688;2024-03-02T03:39:15;5.63;;;1.80;;
69463;SDS011;56665;41.106;16.688;2024-03-02T03:42:18;8.43;;;2.15;;
69463;SDS011;56665;41.106;16.688;2024-03-02T03:45:22;6.40;;;2.40;;
69463;SDS011;56665;41.106;16.688;2024-03-02T03:48:28;9.70;;;2.35;;
69463;SDS011;56665;41.106;16.688;2024-03-02T03:51:33;7.07;;;2.53;;
69463;SDS011;56665;41.106;16.688;2024-03-02T03:54:38;7.50;;;1.97;;
69463;SDS011;56665;41.106;16.688;2024-03-02T03:57:42;8.65;;;2.10;;
69463;SDS011;56665;41.106;16.688;2024-03-02T04:00:46;7.70;;;2.28;;
69463;SDS011;56665;41.106;16.688;2024-03-02T04:03:50;7.32;;;2.22;;
69463;SDS011;56665;41.106;16.688;2024-03-02T04:06:53;10.20;;;2.60;;
69463;SDS011;56665;41.106;16.688;2024-03-02T04:09:57;4.80;;;2.00;;
69463;SDS011;56665;41.106;16.688;2024-03-02T04:13:01;5.95;;;2.17;;
69463;SDS011;56665;41.106;16.688;2024-03-02T04:16:05;5.72;;;2.17;;
69463;SDS011;56665;41.106;16.688;2024-03-02T04:19:08;6.10;;;1.90;;
69463;SDS011;56665;41.106;16.688;2024-03-02T04:22:12;7.03;;;2.10;;
69463;SDS011;56665;41.106;16.688;2024-03-02T04:25:16;9.97;;;2.80;;
69463;SDS011;56665;41.106;16.688;2024-03-02T04:28:21;7.47;;;2.20;;
69463;SDS011;56665;41.106;16.688;2024-03-02T04:31:25;11.05;;;2.67;;
69463;SDS011;56665;41.106;16.688;2024-03-02T04:34:29;8.55;;;2.55;;
69463;SDS011;56665;41.106;16.688;2024-03-02T04:37:34;6.03;;;2.00;;
69463;SDS011;56665;41.106;16.688;2024-03-02T04:40:37;5.37;;;2.33;;
69463;SDS011;56665;41.106;16.688;2024-03-02T04:43:41;5.03;;;2.35;;
69463;SDS011;56665;41.106;16.688;2024-03-02T04:46:45;8.65;;;4.07;;
69463;SDS011;56665;41.106;16.688;2024-03-02T04:49:49;12.65;;;4.10;;
69463;SDS011;56665;41.106;16.688;2024-03-02T04:52:52;11.05;;;5.32;;
69463;SDS011;56665;41.106;16.688;2024-03-02T04:55:56;10.17;;;5.07;;
69463;SDS011;56665;41.106;16.688;2024-03-02T04:59:18;14.13;;;8.75;;
69463;SDS011;56665;41.106;16.688;2024-03-02T05:02:22;20.13;;;11.35;;
69463;SDS011;56665;41.106;16.688;2024-03-02T05:05:26;18.73;;;12.20;;
69463;SDS011;56665;41.106;16.688;2024-03-02T05:08:29;17.27;;;11.07;;
69463;SDS011;56665;41.106;16.688;2024-03-02T05:11:33;15.73;;;11.10;;
69463;SDS011;56665;41.106;16.688;2024-03-02T05:14:40;13.48;;;8.30;;
69463;SDS011;56665;41.106;16.688;2024-03-02T05:17:44;11.00;;;6.80;;
69463;SDS011;56665;41.106;16.688;2024-03-02T05:20:47;11.35;;;5.78;;
69463;SDS011;56665;41.106;16.688;2024-03-02T05:23:51;13.45;;;7.35;;
69463;SDS011;56665;41.106;16.688;2024-03-02T05:26:55;28.87;;;15.90;;
69463;SDS011;56665;41.106;16.688;2024-03-02T05:29:59;65.53;;;36.92;;
69463;SDS011;56665;41.106;16.688;2024-03-02T05:33:03;81.85;;;47.17;;
69463;SDS011;56665;41.106;16.688;2024-03-02T05:36:06;53.03;;;31.98;;
69463;SDS011;56665;41.106;16.688;2024-03-02T05:39:10;45.58;;;25.23;;
69463;SDS011;56665;41.106;16.688;2024-03-02T05:42:14;44.33;;;24.27;;
69463;SDS011;56665;41.106;16.688;2024-03-02T05:45:19;48.13;;;26.20;;
69463;SDS011;56665;41.106;16.688;2024-03-02T05:48:23;53.58;;;27.40;;
69463;SDS011;56665;41.106;16.688;2024-03-02T05:51:27;52.28;;;26.42;;
69463;SDS011;56665;41.106;16.688;2024-03-02T05:54:34;50.55;;;28.40;;
69463;SDS011;56665;41.106;16.688;2024-03-02T05:57:38;66.50;;;33.03;;
69463;SDS011;56665;41.106;16.688;2024-03-02T06:00:47;76.85;;;41.58;;
69463;SDS011;56665;41.106;16.688;2024-03-02T06:03:51;83.45;;;45.25;;
69463;SDS011;56665;41.106;16.688;2024-03-02T06:06:55;62.97;;;37.13;;
69463;SDS011;56665;41.106;16.688;2024-03-02T06:09:59;53.85;;;29.75;;
69463;SDS011;56665;41.106;16.688;2024-03-02T06:13:03;43.17;;;23.50;;
69463;SDS011;56665;41.106;16.688;2024-03-02T06:16:07;39.75;;;20.55;;
69463;SDS011;56665;41.106;16.688;2024-03-02T06:19:11;36.30;;;20.17;;
69463;SDS011;56665;41.106;16.688;2024-03-02T06:22:15;32.55;;;18.77;;
69463;SDS011;56665;41.106;16.688;2024-03-02T06:25:19;38.70;;;22.00;;
69463;SDS011;56665;41.106;16.688;2024-03-02T06:28:22;50.37;;;29.23;;
69463;SDS011;56665;41.106;16.688;2024-03-02T06:31:26;62.88;;;32.05;;
69463;SDS011;56665;41.106;16.688;2024-03-02T06:34:30;82.45;;;45.63;;
69463;SDS011;56665;41.106;16.688;2024-03-02T06:37:34;80.75;;;44.88;;
69463;SDS011;56665;41.106;16.688;2024-03-02T06:40:38;81.18;;;44.70;;
69463;SDS011;56665;41.106;16.688;2024-03-02T06:43:43;87.17;;;48.33;;
69463;SDS011;56665;41.106;16.688;2024-03-02T06:46:47;89.18;;;49.00;;
69463;SDS011;56665;41.106;16.688;2024-03-02T06:49:51;85.68;;;46.95;;
69463;SDS011;56665;41.106;16.688;2024-03-02T06:52:54;77.07;;;41.92;;
69463;SDS011;56665;41.106;16.688;2024-03-02T06:55:59;83.82;;;47.00;;
69463;SDS011;56665;41.106;16.688;2024-03-02T06:59:02;89.07;;;50.60;;
69463;SDS011;56665;41.106;16.688;2024-03-02T07:02:06;90.68;;;51.50;;
69463;SDS011;56665;41.106;16.688;2024-03-02T07:05:13;82.38;;;48.10;;
69463;SDS011;56665;41.106;16.688;2024-03-02T07:08:16;77.95;;;45.97;;
69463;SDS011;56665;41.106;16.688;2024-03-02T07:11:21;71.93;;;43.13;;
69463;SDS011;56665;41.106;16.688;2024-03-02T07:14:24;69.53;;;42.80;;
69463;SDS011;56665;41.106;16.688;2024-03-02T07:17:48;75.15;;;44.55;;
69463;SDS011;56665;41.106;16.688;2024-03-02T07:20:51;66.97;;;41.40;;
69463;SDS011;56665;41.106;16.688;2024-03-02T07:23:55;60.85;;;37.17;;
69463;SDS011;56665;41.106;16.688;2024-03-02T07:26:59;52.72;;;34.20;;
69463;SDS011;56665;41.106;16.688;2024-03-02T07:30:03;48.97;;;31.03;;
69463;SDS011;56665;41.106;16.688;2024-03-02T07:33:07;48.55;;;29.52;;
69463;SDS011;56665;41.106;16.688;2024-03-02T07:36:10;45.03;;;30.85;;
69463;SDS011;56665;41.106;16.688;2024-03-02T07:39:14;43.72;;;27.85;;
69463;SDS011;56665;41.106;16.688;2024-03-02T07:42:18;38.03;;;23.73;;
69463;SDS011;56665;41.106;16.688;2024-03-02T07:45:22;30.90;;;19.10;;
69463;SDS011;56665;41.106;16.688;2024-03-02T07:48:26;27.20;;;18.45;;
69463;SDS011;56665;41.106;16.688;2024-03-02T07:51:30;20.42;;;13.18;;
69463;SDS011;56665;41.106;16.688;2024-03-02T07:54:34;15.52;;;8.98;;
69463;SDS011;56665;41.106;16.688;2024-03-02T07:57:38;10.40;;;5.28;;
69463;SDS011;56665;41.106;16.688;2024-03-02T08:00:42;9.57;;;4.40;;
69463;SDS011;56665;41.106;16.688;2024-03-02T08:03:45;8.25;;;4.47;;
69463;SDS011;56665;41.106;16.688;2024-03-02T08:06:53;9.90;;;4.90;;
69463;SDS011;56665;41.106;16.688;2024-03-02T08:09:58;8.90;;;5.38;;
69463;SDS011;56665;41.106;16.688;2024-03-02T08:13:01;8.88;;;5.20;;
69463;SDS011;56665;41.106;16.688;2024-03-02T08:16:05;11.20;;;6.70;;
69463;SDS011;56665;41.106;16.688;2024-03-02T08:19:12;11.20;;;7.00;;
69463;SDS011;56665;41.106;16.688;2024-03-02T08:22:16;11.18;;;7.60;;
69463;SDS011;56665;41.106;16.688;2024-03-02T08:25:20;15.18;;;9.18;;
69463;SDS011;56665;41.106;16.688;2024-03-02T08:28:24;13.55;;;9.20;;
69463;SDS011;56665;41.106;16.688;2024-03-02T08:31:28;12.00;;;7.67;;
69463;SDS011;56665;41.106;16.688;2024-03-02T08:34:32;11.63;;;7.15;;
69463;SDS011;56665;41.106;16.688;2024-03-02T08:37:41;13.45;;;7.68;;
69463;SDS011;56665;41.106;16.688;2024-03-02T08:40:46;14.65;;;8.30;;
69463;SDS011;56665;41.106;16.688;2024-03-02T08:43:50;14.35;;;9.00;;
69463;SDS011;56665;41.106;16.688;2024-03-02T08:46:54;11.27;;;7.10;;
69463;SDS011;56665;41.106;16.688;2024-03-02T08:49:58;11.52;;;6.93;;
69463;SDS011;56665;41.106;16.688;2024-03-02T08:53:03;10.48;;;5.07;;
69463;SDS011;56665;41.106;16.688;2024-03-02T08:56:07;6.78;;;3.95;;
69463;SDS011;56665;41.106;16.688;2024-03-02T08:59:10;6.70;;;3.95;;
69463;SDS011;56665;41.106;16.688;2024-03-02T09:02:14;8.07;;;4.77;;
69463;SDS011;56665;41.106;16.688;2024-03-02T09:05:18;9.40;;;5.43;;
69463;SDS011;56665;41.106;16.688;2024-03-02T09:08:22;7.50;;;4.15;;
69463;SDS011;56665;41.106;16.688;2024-03-02T09:11:25;8.57;;;5.15;;
69463;SDS011;56665;41.106;16.688;2024-03-02T09:14:29;10.45;;;5.60;;
69463;SDS011;56665;41.106;16.688;2024-03-02T09:17:33;11.00;;;6.80;;
69463;SDS011;56665;41.106;16.688;2024-03-02T09:20:37;11.30;;;7.30;;
69463;SDS011;56665;41.106;16.688;2024-03-02T09:23:41;15.45;;;8.50;;
69463;SDS011;56665;41.106;16.688;2024-03-02T09:26:45;11.77;;;7.60;;
69463;SDS011;56665;41.106;16.688;2024-03-02T09:29:49;13.75;;;7.90;;
69463;SDS011;56665;41.106;16.688;2024-03-02T09:32:53;12.33;;;8.10;;
69463;SDS011;56665;41.106;16.688;2024-03-02T09:35:56;11.02;;;6.63;;
69463;SDS011;56665;41.106;16.688;2024-03-02T09:39:00;11.65;;;7.03;;
69463;SDS011;56665;41.106;16.688;2024-03-02T09:42:04;11.63;;;6.15;;
69463;SDS011;56665;41.106;16.688;2024-03-02T09:45:09;10.18;;;6.43;;
69463;SDS011;56665;41.106;16.688;2024-03-02T09:48:13;8.77;;;5.90;;
69463;SDS011;56665;41.106;16.688;2024-03-02T09:51:17;11.30;;;6.50;;
69463;SDS011;56665;41.106;16.688;2024-03-02T09:54:23;10.93;;;6.30;;
69463;SDS011;56665;41.106;16.688;2024-03-02T09:57:26;10.52;;;5.80;;
69463;SDS011;56665;41.106;16.688;2024-03-02T10:00:30;8.77;;;3.90;;
69463;SDS011;56665;41.106;16.688;2024-03-02T10:03:34;8.20;;;3.87;;
69463;SDS011;56665;41.106;16.688;2024-03-02T10:06:38;6.22;;;3.30;;
69463;SDS011;56665;41.106;16.688;2024-03-02T10:09:43;7.40;;;3.65;;
69463;SDS011;56665;41.106;16.688;2024-03-02T10:12:49;10.63;;;3.50;;
69463;SDS011;56665;41.106;16.688;2024-03-02T10:16:11;20.17;;;4.25;;
69463;SDS011;56665;41.106;16.688;2024-03-02T10:19:22;6.17;;;3.13;;
69463;SDS011;56665;41.106;16.688;2024-03-02T10:22:27;5.72;;;3.05;;
69463;SDS011;56665;41.106;16.688;2024-03-02T10:25:31;62.58;;;6.00;;
69463;SDS011;56665;41.106;16.688;2024-03-02T10:28:35;22.73;;;4.70;;
69463;SDS011;56665;41.106;16.688;2024-03-02T10:31:40;13.10;;;3.15;;
69463;SDS011;56665;41.106;16.688;2024-03-02T10:34:46;6.70;;;1.97;;
69463;SDS011;56665;41.106;16.688;2024-03-02T10:37:52;3.95;;;0.90;;
69463;SDS011;56665;41.106;16.688;2024-03-02T10:40:57;4.28;;;2.42;;
69463;SDS011;56665;41.106;16.688;2024-03-02T10:44:03;33.65;;;5.32;;
69463;SDS011;56665;41.106;16.688;2024-03-02T10:47:11;7.65;;;2.70;;
69463;SDS011;56665;41.106;16.688;2024-03-02T10:50:15;5.30;;;3.30;;
69463;SDS011;56665;41.106;16.688;2024-03-02T10:53:19;8.20;;;3.75;;
69463;SDS011;56665;41.106;16.688;2024-03-02T10:56:34;6.45;;;3.35;;
69463;SDS011;56665;41.106;16.688;2024-03-02T10:59:52;6.57;;;2.72;;
69463;SDS011;56665;41.106;16.688;2024-03-02T11:03:06;6.93;;;3.05;;
69463;SDS011;56665;41.106;16.688;2024-03-02T11:06:13;5.33;;;2.80;;
69463;SDS011;56665;41.106;16.688;2024-03-02T11:09:19;7.13;;;2.92;;
69463;SDS011;56665;41.106;16.688;2024-03-02T11:12:29;5.32;;;2.38;;
69463;SDS011;56665;41.106;16.688;2024-03-02T11:15:40;4.70;;;2.65;;
69463;SDS011;56665;41.106;16.688;2024-03-02T11:18:47;5.22;;;2.70;;
69463;SDS011;56665;41.106;16.688;2024-03-02T11:21:53;5.97;;;3.10;;
69463;SDS011;56665;41.106;16.688;2024-03-02T11:24:57;7.22;;;3.20;;
69463;SDS011;56665;41.106;16.688;2024-03-02T11:28:07;8.15;;;3.30;;
69463;SDS011;56665;41.106;16.688;2024-03-02T11:31:12;9.68;;;4.05;;
69463;SDS011;56665;41.106;16.688;2024-03-02T11:34:32;16.23;;;7.53;;
69463;SDS011;56665;41.106;16.688;2024-03-02T11:37:37;14.90;;;7.83;;
69463;SDS011;56665;41.106;16.688;2024-03-02T11:40:42;18.50;;;9.68;;
69463;SDS011;56665;41.106;16.688;2024-03-02T11:43:45;10.13;;;3.90;;
69463;SDS011;56665;41.106;16.688;2024-03-02T11:46:58;7.95;;;2.90;;
69463;SDS011;56665;41.106;16.688;2024-03-02T11:50:02;7.18;;;3.22;;
69463;SDS011;56665;41.106;16.688;2024-03-02T11:53:10;8.80;;;2.40;;
69463;SDS011;56665;41.106;16.688;2024-03-02T11:56:15;6.05;;;2.80;;
69463;SDS011;56665;41.106;16.688;2024-03-02T11:59:20;8.88;;;3.25;;
69463;SDS011;56665;41.106;16.688;2024-03-02T12:02:25;8.88;;;2.42;;
69463;SDS011;56665;41.106;16.688;2024-03-02T12:05:28;6.97;;;2.60;;
69463;SDS011;56665;41.106;16.688;2024-03-02T12:08:33;6.87;;;2.33;;
69463;SDS011;56665;41.106;16.688;2024-03-02T12:11:37;8.38;;;2.50;;
69463;SDS011;56665;41.106;16.688;2024-03-02T12:14:41;5.32;;;2.88;;
69463;SDS011;56665;41.106;16.688;2024-03-02T12:17:54;9.88;;;2.70;;
69463;SDS011;56665;41.106;16.688;2024-03-02T12:20:59;7.95;;;3.03;;
69463;SDS011;56665;41.106;16.688;2024-03-02T12:24:03;6.97;;;2.30;;
69463;SDS011;56665;41.106;16.688;2024-03-02T12:27:07;6.47;;;2.60;;
69463;SDS011;56665;41.106;16.688;2024-03-02T12:30:11;9.00;;;2.30;;
69463;SDS011;56665;41.106;16.688;2024-03-02T12:33:17;6.57;;;3.00;;
69463;SDS011;56665;41.106;16.688;2024-03-02T12:36:21;9.73;;;2.80;;
69463;SDS011;56665;41.106;16.688;2024-03-02T12:39:25;8.63;;;3.07;;
69463;SDS011;56665;41.106;16.688;2024-03-02T12:42:30;10.50;;;2.83;;
69463;SDS011;56665;41.106;16.688;2024-03-02T12:45:34;12.75;;;3.75;;
69463;SDS011;56665;41.106;16.688;2024-03-02T12:48:38;11.02;;;3.85;;
69463;SDS011;56665;41.106;16.688;2024-03-02T12:51:45;12.60;;;4.60;;
69463;SDS011;56665;41.106;16.688;2024-03-02T12:54:50;11.73;;;3.70;;
69463;SDS011;56665;41.106;16.688;2024-03-02T12:57:54;15.13;;;3.30;;
69463;SDS011;56665;41.106;16.688;2024-03-02T13:01:15;8.68;;;3.13;;
69463;SDS011;56665;41.106;16.688;2024-03-02T13:04:22;9.13;;;2.83;;
69463;SDS011;56665;41.106;16.688;2024-03-02T13:07:31;17.58;;;3.65;;
69463;SDS011;56665;41.106;16.688;2024-03-02T13:10:36;12.90;;;2.67;;
69463;SDS011;56665;41.106;16.688;2024-03-02T13:13:41;13.73;;;3.92;;
69463;SDS011;56665;41.106;16.688;2024-03-02T13:16:44;13.15;;;3.35;;
69463;SDS011;56665;41.106;16.688;2024-03-02T13:20:08;12.77;;;3.63;;
69463;SDS011;56665;41.106;16.688;2024-03-02T13:23:14;13.32;;;3.72;;
69463;SDS011;56665;41.106;16.688;2024-03-02T13:26:17;12.77;;;2.67;;
69463;SDS011;56665;41.106;16.688;2024-03-02T13:29:22;15.50;;;3.83;;
69463;SDS011;56665;41.106;16.688;2024-03-02T13:32:25;29.05;;;7.82;;
69463;SDS011;56665;41.106;16.688;2024-03-02T13:35:29;15.05;;;4.82;;
69463;SDS011;56665;41.106;16.688;2024-03-02T13:38:33;14.05;;;4.30;;
69463;SDS011;56665;41.106;16.688;2024-03-02T13:41:37;18.87;;;4.70;;
69463;SDS011;56665;41.106;16.688;2024-03-02T13:44:44;18.15;;;3.97;;
69463;SDS011;56665;41.106;16.688;2024-03-02T13:47:52;17.50;;;3.85;;
69463;SDS011;56665;41.106;16.688;2024-03-02T13:50:56;22.23;;;5.20;;
69463;SDS011;56665;41.106;16.688;2024-03-02T13:54:00;15.65;;;4.47;;
69463;SDS011;56665;41.106;16.688;2024-03-02T13:57:04;21.37;;;3.80;;
69463;SDS011;56665;41.106;16.688;2024-03-02T14:00:07;24.42;;;6.50;;
69463;SDS011;56665;41.106;16.688;2024-03-02T14:03:15;18.85;;;4.70;;
69463;SDS011;56665;41.106;16.688;2024-03-02T14:06:19;14.25;;;4.25;;
69463;SDS011;56665;41.106;16.688;2024-03-02T14:09:23;17.83;;;4.18;;
69463;SDS011;56665;41.106;16.688;2024-03-02T14:12:27;20.20;;;3.40;;
69463;SDS011;56665;41.106;16.688;2024-03-02T14:15:31;17.45;;;3.10;;
69463;SDS011;56665;41.106;16.688;2024-03-02T14:18:35;13.50;;;3.22;;
69463;SDS011;56665;41.106;16.688;2024-03-02T14:21:39;20.80;;;3.88;;
69463;SDS011;56665;41.106;16.688;2024-03-02T14:24:43;20.00;;;4.47;;
69463;SDS011;56665;41.106;16.688;2024-03-02T14:27:47;17.07;;;4.37;;
69463;SDS011;56665;41.106;16.688;2024-03-02T14:30:51;24.85;;;6.53;;
69463;SDS011;56665;41.106;16.688;2024-03-02T14:33:54;18.02;;;5.40;;
69463;SDS011;56665;41.106;16.688;2024-03-02T14:36:58;19.27;;;5.05;;
69463;SDS011;56665;41.106;16.688;2024-03-02T14:40:02;14.55;;;5.05;;
69463;SDS011;56665;41.106;16.688;2024-03-02T14:43:09;16.90;;;4.37;;
69463;SDS011;56665;41.106;16.688;2024-03-02T14:46:13;19.98;;;3.92;;
69463;SDS011;56665;41.106;16.688;2024-03-02T14:49:17;17.55;;;4.20;;
69463;SDS011;56665;41.106;16.688;2024-03-02T14:52:21;14.63;;;3.97;;
69463;SDS011;56665;41.106;16.688;2024-03-02T14:55:24;12.07;;;3.97;;
69463;SDS011;56665;41.106;16.688;2024-03-02T14:58:28;13.17;;;3.40;;
69463;SDS011;56665;41.106;16.688;2024-03-02T15:01:32;15.32;;;3.30;;
69463;SDS011;56665;41.106;16.688;2024-03-02T15:04:36;17.27;;;3.78;;
69463;SDS011;56665;41.106;16.688;2024-03-02T15:07:40;15.63;;;3.67;;
69463;SDS011;56665;41.106;16.688;2024-03-02T15:10:43;14.63;;;3.42;;
69463;SDS011;56665;41.106;16.688;2024-03-02T15:13:47;17.40;;;4.13;;
69463;SDS011;56665;41.106;16.688;2024-03-02T15:16:51;12.85;;;3.40;;
69463;SDS011;56665;41.106;16.688;2024-03-02T15:19:55;16.95;;;4.65;;
69463;SDS011;56665;41.106;16.688;2024-03-02T15:22:59;11.40;;;4.43;;
69463;SDS011;56665;41.106;16.688;2024-03-02T15:26:02;16.38;;;4.85;;
69463;SDS011;56665;41.106;16.688;2024-03-02T15:29:06;20.23;;;4.33;;
69463;SDS011;56665;41.106;16.688;2024-03-02T15:32:10;16.27;;;4.35;;
69463;SDS011;56665;41.106;16.688;2024-03-02T15:35:14;14.10;;;4.50;;
69463;SDS011;56665;41.106;16.688;2024-03-02T15:38:18;21.25;;;5.13;;
69463;SDS011;56665;41.106;16.688;2024-03-02T15:41:21;20.55;;;4.03;;
69463;SDS011;56665;41.106;16.688;2024-03-02T15:44:25;26.57;;;4.33;;
69463;SDS011;56665;41.106;16.688;2024-03-02T15:47:29;26.58;;;4.45;;
69463;SDS011;56665;41.106;16.688;2024-03-02T15:50:33;15.20;;;4.35;;
69463;SDS011;56665;41.106;16.688;2024-03-02T15:53:36;17.10;;;5.70;;
69463;SDS011;56665;41.106;16.688;2024-03-02T15:56:40;22.20;;;8.07;;
69463;SDS011;56665;41.106;16.688;2024-03-02T15:59:44;26.63;;;10.80;;
69463;SDS011;56665;41.106;16.688;2024-03-02T16:02:48;16.95;;;6.32;;
69463;SDS011;56665;41.106;16.688;2024-03-02T16:05:52;20.00;;;6.40;;
69463;SDS011;56665;41.106;16.688;2024-03-02T16:08:55;16.48;;;5.90;;
69463;SDS011;56665;41.106;16.688;2024-03-02T16:12:02;17.08;;;6.13;;
69463;SDS011;56665;41.106;16.688;2024-03-02T16:15:07;17.60;;;7.70;;
69463;SDS011;56665;41.106;16.688;2024-03-02T16:18:12;18.55;;;8.27;;
69463;SDS011;56665;41.106;16.688;2024-03-02T16:21:15;22.13;;;9.30;;
69463;SDS011;56665;41.106;16.688;2024-03-02T16:24:19;19.65;;;8.15;;
69463;SDS011;56665;41.106;16.688;2024-03-02T16:27:23;16.63;;;6.70;;
69463;SDS011;56665;41.106;16.688;2024-03-02T16:30:27;16.77;;;6.40;;
69463;SDS011;56665;41.106;16.688;2024-03-02T16:33:31;20.00;;;5.93;;
69463;SDS011;56665;41.106;16.688;2024-03-02T16:36:35;16.08;;;5.63;;
69463;SDS011;56665;41.106;16.688;2024-03-02T16:39:40;15.13;;;7.65;;
69463;SDS011;56665;41.106;16.688;2024-03-02T16:42:44;17.85;;;9.48;;
69463;SDS011;56665;41.106;16.688;2024-03-02T16:45:49;17.43;;;7.97;;
69463;SDS011;56665;41.106;16.688;2024-03-02T16:48:53;23.80;;;9.07;;
69463;SDS011;56665;41.106;16.688;2024-03-02T16:51:57;18.90;;;6.82;;
69463;SDS011;56665;41.106;16.688;2024-03-02T16:55:01;19.48;;;6.28;;
69463;SDS011;56665;41.106;16.688;2024-03-02T16:58:05;18.63;;;6.32;;
69463;SDS011;56665;41.106;16.688;2024-03-02T17:01:09;15.50;;;6.90;;
69463;SDS011;56665;41.106;16.688;2024-03-02T17:04:13;18.55;;;6.10;;
69463;SDS011;56665;41.106;16.688;2024-03-02T17:07:17;19.90;;;7.28;;
69463;SDS011;56665;41.106;16.688;2024-03-02T17:10:20;18.95;;;6.65;;
69463;SDS011;56665;41.106;16.688;2024-03-02T17:13:24;20.90;;;8.05;;
69463;SDS011;56665;41.106;16.688;2024-03-02T17:16:28;25.40;;;8.90;;
69463;SDS011;56665;41.106;16.688;2024-03-02T17:19:32;24.45;;;9.57;;
69463;SDS011;56665;41.106;16.688;2024-03-02T17:22:35;20.23;;;8.68;;
69463;SDS011;56665;41.106;16.688;2024-03-02T17:25:40;38.58;;;18.88;;
69463;SDS011;56665;41.106;16.688;2024-03-02T17:28:44;52.50;;;27.85;;
69463;SDS011;56665;41.106;16.688;2024-03-02T17:31:48;57.13;;;34.63;;
69463;SDS011;56665;41.106;16.688;2024-03-02T17:34:52;49.53;;;25.52;;
69463;SDS011;56665;41.106;16.688;2024-03-02T17:37:55;51.17;;;28.50;;
69463;SDS011;56665;41.106;16.688;2024-03-02T17:40:59;46.25;;;27.77;;
69463;SDS011;56665;41.106;16.688;2024-03-02T17:44:04;45.67;;;23.40;;
69463;SDS011;56665;41.106;16.688;2024-03-02T17:47:07;38.53;;;16.00;;
69463;SDS011;56665;41.106;16.688;2024-03-02T17:50:11;27.35;;;11.85;;
69463;SDS011;56665;41.106;16.688;2024-03-02T17:53:15;24.60;;;11.57;;
69463;SDS011;56665;41.106;16.688;2024-03-02T17:56:19;32.38;;;17.60;;
69463;SDS011;56665;41.106;16.688;2024-03-02T17:59:23;22.73;;;9.68;;
69463;SDS011;56665;41.106;16.688;2024-03-02T18:02:26;30.70;;;9.40;;